createdAt,value
2018-01-15T00:01:55.812Z,67
2018-01-15T00:06:55.758Z,66.42
2018-01-15T00:11:55.724Z,66.9
2018-01-15T00:16:55.608Z,67.19
2018-01-15T00:21:55.536Z,67.38
2018-01-15T00:26:55.464Z,66.52
2018-01-15T00:31:55.398Z,67.35
2018-01-15T00:36:55.325Z,66.86
2018-01-15T00:41:55.255Z,67.16
2018-01-15T00:46:55.198Z,67.44
2018-01-15T00:51:55.110Z,67.63
2018-01-15T00:56:55.048Z,67.54
2018-01-15T01:01:54.968Z,67.54
2018-01-15T01:06:54.885Z,67.35
2018-01-15T01:11:54.816Z,67.25
2018-01-15T01:16:54.791Z,67.44
2018-01-15T01:21:54.658Z,67.92
2018-01-15T01:26:54.583Z,67.63
2018-01-15T01:31:54.563Z,67.54
2018-01-15T01:36:54.461Z,67.73
2018-01-15T01:41:54.407Z,67.92
2018-01-15T01:46:54.287Z,67.35
2018-01-15T01:51:54.207Z,67.16
2018-01-15T01:56:54.135Z,68.12
2018-01-15T02:01:54.071Z,68.37
2018-01-15T02:06:53.980Z,67.99
2018-01-15T02:11:53.902Z,67.79
2018-01-15T02:16:53.821Z,68.37
2018-01-15T02:21:53.747Z,67.89
2018-01-15T02:26:53.728Z,68.08
2018-01-15T02:31:53.598Z,67.89
2018-01-15T02:36:53.523Z,67.99
2018-01-15T02:41:53.485Z,68.56
2018-01-15T02:46:53.369Z,68.27
2018-01-15T02:51:53.289Z,67.89
2018-01-15T02:56:53.239Z,68.12
2018-01-15T03:01:53.143Z,67.92
2018-01-15T03:06:53.065Z,68.3
2018-01-15T03:11:53.001Z,68.3
2018-01-15T03:16:52.916Z,67.79
2018-01-15T03:21:52.838Z,67.73
2018-01-15T03:26:52.768Z,67.44
2018-01-15T03:31:52.770Z,67.54
2018-01-15T03:36:52.660Z,67.73
2018-01-15T03:41:52.534Z,68.02
2018-01-15T03:46:52.457Z,67.5
2018-01-15T03:51:52.430Z,67.92
2018-01-15T03:56:52.312Z,67.99
2018-01-15T04:01:52.229Z,68.27
2018-01-15T04:06:52.208Z,68.46
2018-01-15T04:11:52.088Z,68.75
2018-01-15T04:16:52.004Z,68.37
2018-01-15T04:21:51.920Z,68.3
2018-01-15T04:26:51.854Z,68.3
2018-01-15T04:31:51.772Z,68.02
2018-01-15T04:36:51.697Z,68.5
2018-01-15T04:41:51.621Z,68.59
2018-01-15T04:46:51.553Z,67.73
2018-01-15T04:51:51.465Z,68.12
2018-01-15T04:56:51.385Z,68.12
2018-01-15T05:01:51.328Z,68.21
2018-01-15T05:06:51.237Z,68.02
2018-01-15T05:11:51.202Z,68.69
2018-01-15T05:16:51.098Z,68.5
2018-01-15T05:21:51.017Z,68.75
2018-01-15T05:26:50.952Z,68.75
2018-01-15T05:31:50.868Z,68.46
2018-01-15T05:36:50.855Z,68.37
2018-01-15T05:41:50.455Z,68.5
2018-01-15T05:46:50.641Z,68.02
2018-01-15T05:51:50.301Z,68.12
2018-01-15T05:56:50.487Z,68.98
2018-01-15T06:01:50.459Z,68.56
2018-01-15T06:06:50.345Z,68.4
2018-01-15T06:11:50.251Z,68.69
2018-01-15T06:16:50.181Z,68.3
2018-01-15T06:21:50.101Z,68.88
2018-01-15T06:26:50.025Z,68.95
2018-01-15T06:31:49.951Z,68.79
2018-01-15T06:36:49.877Z,68.59
2018-01-15T06:41:49.858Z,68.59
2018-01-15T06:46:49.736Z,68.88
2018-01-15T06:51:49.653Z,68.79
2018-01-15T06:56:49.589Z,69.17
2018-01-15T07:01:49.505Z,69.46
2018-01-15T07:06:49.436Z,69.17
2018-01-15T07:11:49.452Z,68.4
2018-01-15T07:16:49.025Z,68.4
2018-01-15T07:21:49.205Z,68.82
2018-01-15T07:26:49.139Z,68.44
2018-01-15T07:31:49.077Z,68.24
2018-01-15T07:36:49.055Z,68.47
2018-01-15T07:41:48.917Z,68.18
2018-01-15T07:46:48.861Z,68.47
2018-01-15T07:51:48.787Z,68.18
2018-01-15T07:56:48.484Z,68.85
2018-01-15T08:01:48.644Z,68.66
2018-01-15T08:06:48.565Z,68.85
2018-01-15T08:11:48.496Z,68.66
2018-01-15T08:16:48.421Z,68.91
2018-01-15T08:21:48.359Z,68.95
2018-01-15T08:26:48.281Z,69.62
2018-01-15T08:31:48.232Z,69.46
2018-01-15T08:36:48.143Z,70.52
2018-01-15T08:41:48.076Z,70.04
2018-01-15T08:46:48.021Z,70.33
2018-01-15T08:51:47.948Z,70.81
2018-01-15T08:56:47.867Z,71
2018-01-15T09:01:47.788Z,71.39
2018-01-15T09:06:47.733Z,70.52
2018-01-15T09:11:47.653Z,70.52
2018-01-15T09:16:47.589Z,70.04
2018-01-15T09:21:47.506Z,69.85
2018-01-15T09:26:47.461Z,69.95
2018-01-15T09:31:47.404Z,70.43
2018-01-15T09:36:47.292Z,71.1
2018-01-15T09:41:47.253Z,70.33
2018-01-15T09:46:47.170Z,70.33
2018-01-15T09:51:47.084Z,70.04
2018-01-15T09:56:47.014Z,70.04
2018-01-15T10:01:46.990Z,70.14
2018-01-15T10:06:46.932Z,70.72
2018-01-15T10:11:46.805Z,71.39
2018-01-15T10:16:46.750Z,70.52
2018-01-15T10:21:46.653Z,70.72
2018-01-15T10:26:46.585Z,70.62
2018-01-15T10:31:46.513Z,70.72
2018-01-15T10:36:46.443Z,71.39
2018-01-15T10:41:46.389Z,72.34
2018-01-15T10:46:46.302Z,71.39
2018-01-15T10:51:46.234Z,71.67
2018-01-15T10:56:46.163Z,71.39
2018-01-15T11:01:46.089Z,71.29
2018-01-15T11:06:46.010Z,72.92
2018-01-15T11:11:45.949Z,72.06
2018-01-15T11:16:45.876Z,73.02
2018-01-15T11:21:45.894Z,72.54
2018-01-15T11:26:45.736Z,71.96
2018-01-15T11:31:45.666Z,72.16
2018-01-15T11:36:45.640Z,71.39
2018-01-15T11:41:45.558Z,71.39
2018-01-15T11:46:45.446Z,71.77
2018-01-15T11:51:45.461Z,72.25
2018-01-15T11:56:45.327Z,72.54
2018-01-15T12:01:45.232Z,73.31
2018-01-15T12:06:45.174Z,71.77
2018-01-15T12:11:45.092Z,72.29
2018-01-15T12:16:45.048Z,72.06
2018-01-15T12:21:44.984Z,72.64
2018-01-15T12:26:44.973Z,72.96
2018-01-15T12:31:44.832Z,72.73
2018-01-15T12:36:44.760Z,73.35
2018-01-15T12:41:44.682Z,73.6
2018-01-15T12:46:44.616Z,74.21
2018-01-15T12:51:44.544Z,73.88
2018-01-15T12:56:44.482Z,74.08
2018-01-15T13:01:44.411Z,73.6
2018-01-15T13:06:44.334Z,73.79
2018-01-15T13:11:44.275Z,74.08
2018-01-15T13:16:44.207Z,75.23
2018-01-15T13:21:44.136Z,73.35
2018-01-15T13:26:44.058Z,72.92
2018-01-15T13:31:43.996Z,72.96
2018-01-15T13:36:43.925Z,72.92
2018-01-15T13:41:43.868Z,73.21
2018-01-15T13:46:43.788Z,73.5
2018-01-15T13:51:43.722Z,73.88
2018-01-15T13:56:43.649Z,73.88
2018-01-15T14:01:43.642Z,74.37
2018-01-15T14:06:43.538Z,74.08
2018-01-15T14:11:43.432Z,73.79
2018-01-15T14:16:43.375Z,74.27
2018-01-15T14:21:43.311Z,74.08
2018-01-15T14:26:43.312Z,74.37
2018-01-15T14:31:43.152Z,74.37
2018-01-15T14:36:43.214Z,74.52
2018-01-15T14:41:43.011Z,73.94
2018-01-15T14:46:42.948Z,74.23
2018-01-15T14:51:42.868Z,73.85
2018-01-15T14:56:42.805Z,74.08
2018-01-15T15:01:42.731Z,74.33
2018-01-15T15:06:42.667Z,74.23
2018-01-15T15:11:42.599Z,74.08
2018-01-15T15:16:42.518Z,73.88
2018-01-15T15:21:42.465Z,74.08
2018-01-15T15:26:42.147Z,74.23
2018-01-15T15:31:42.307Z,74.85
2018-01-15T15:36:42.237Z,75.32
2018-01-15T15:41:42.207Z,76.19
2018-01-15T15:46:42.105Z,75.13
2018-01-15T15:51:42.025Z,75.13
2018-01-15T15:56:41.963Z,75.42
2018-01-15T16:01:41.895Z,75.52
2018-01-15T16:06:41.827Z,75.52
2018-01-15T16:11:41.767Z,75.32
2018-01-15T16:16:41.699Z,75.32
2018-01-15T16:21:41.620Z,75.9
2018-01-15T16:26:41.562Z,75.23
2018-01-15T16:31:41.490Z,76
2018-01-15T16:36:41.440Z,75.32
2018-01-15T16:41:41.355Z,75.52
2018-01-15T16:46:41.326Z,76.48
2018-01-15T16:51:41.272Z,76.96
2018-01-15T16:56:41.181Z,77.44
2018-01-15T17:01:41.175Z,78.3
2018-01-15T17:06:41.012Z,79.6
2018-01-15T17:11:40.944Z,79.79
2018-01-15T17:16:40.874Z,79.98
2018-01-15T17:21:40.822Z,80.5
2018-01-15T17:26:40.756Z,80.21
2018-01-15T17:31:40.686Z,79.73
2018-01-15T17:36:40.678Z,78.86
2018-01-15T17:41:40.550Z,76.65
2018-01-15T17:46:40.498Z,76.46
2018-01-15T17:51:40.432Z,77.23
2018-01-15T17:56:40.370Z,76.36
2018-01-15T18:01:40.311Z,76.26
2018-01-15T18:06:40.246Z,75.31
2018-01-15T18:11:40.175Z,73.77
2018-01-15T18:16:40.112Z,73.86
2018-01-15T18:21:40.051Z,73.57
2018-01-15T18:26:39.990Z,73
2018-01-15T18:31:39.935Z,73.38
2018-01-15T18:36:40.136Z,73.09
2018-01-15T18:41:39.799Z,73.09
2018-01-15T18:46:39.735Z,72.61
2018-01-15T18:51:39.675Z,72.42
2018-01-15T18:56:39.355Z,72.8
2018-01-15T19:01:39.559Z,73
2018-01-15T19:06:39.567Z,73.28
2018-01-15T19:11:39.535Z,73.47
2018-01-15T19:16:39.414Z,74.44
2018-01-15T19:21:39.293Z,74.05
2018-01-15T19:26:39.241Z,73.57
2018-01-15T19:31:39.226Z,73.19
2018-01-15T19:36:39.091Z,73.09
2018-01-15T19:41:39.045Z,73.19
2018-01-15T19:46:38.982Z,73
2018-01-15T19:51:38.911Z,73.09
2018-01-15T19:56:38.899Z,72.8
2018-01-15T20:01:38.881Z,73.38
2018-01-15T20:06:38.744Z,72.9
2018-01-15T20:11:38.675Z,73.22
2018-01-15T20:16:38.597Z,73.03
2018-01-15T20:21:38.542Z,73.61
2018-01-15T20:26:38.480Z,73.99
2018-01-15T20:31:38.409Z,73.86
2018-01-15T20:36:38.353Z,74.15
2018-01-15T20:41:38.276Z,74.73
2018-01-15T20:46:38.234Z,74.67
2018-01-15T20:51:38.167Z,74.86
2018-01-15T20:56:38.122Z,74.76
2018-01-15T21:01:38.041Z,75.24
2018-01-15T21:06:37.962Z,75.24
2018-01-15T21:11:37.960Z,75.54
2018-01-15T21:16:37.842Z,75.44
2018-01-15T21:21:37.782Z,75.34
2018-01-15T21:26:37.721Z,74.86
2018-01-15T21:31:37.670Z,74.76
2018-01-15T21:36:37.599Z,74.9
2018-01-15T21:41:37.536Z,75.09
2018-01-15T21:46:37.500Z,74.8
2018-01-15T21:51:37.408Z,75.48
2018-01-15T21:56:37.346Z,74.8
2018-01-15T22:01:37.597Z,74.99
2018-01-15T22:06:37.318Z,75.09
2018-01-15T22:11:37.162Z,75.34
2018-01-15T22:16:37.104Z,75.34
2018-01-15T22:21:37.053Z,75.34
2018-01-15T22:26:36.994Z,75.63
2018-01-15T22:31:36.950Z,75.63
2018-01-15T22:36:36.849Z,76.31
2018-01-15T22:41:36.785Z,76.31
2018-01-15T22:46:36.739Z,76.11
2018-01-15T22:51:36.661Z,76.78
2018-01-15T22:56:36.601Z,77.23
2018-01-15T23:01:36.534Z,75.31
2018-01-15T23:06:36.464Z,75.4
2018-01-15T23:11:36.416Z,74.11
2018-01-15T23:16:36.361Z,74.44
2018-01-15T23:21:36.363Z,74.25
2018-01-15T23:26:36.202Z,74.21
2018-01-15T23:31:36.129Z,74.4
2018-01-15T23:36:36.068Z,74.21
2018-01-15T23:41:36.001Z,74.37
2018-01-15T23:46:35.994Z,74.55
2018-01-15T23:51:35.881Z,74.65
2018-01-15T23:56:35.802Z,74.46
